Time;durP1;ratioP1;P1;durP2;ratioP2;P2;SDS_P1;SDS_P2;PMS_P1;PMS_P2;Temp;Humidity;BMP_temperature;BMP_pressure;BME280_temperature;BME280_humidity;BME280_pressure;Samples;Min_cycle;Max_cycle;Signal;HPM_P1;HPM_P2
2022/11/06 00:00:26;;;;;;;9.40;7.43;;;9.00;99.90;;;;;;955630;148;27448;-80
2022/11/06 00:02:53;;;;;;;8.10;7.30;;;8.90;99.90;;;;;;955299;149;27327;-77
2022/11/06 00:08:05;;;;;;;7.70;6.97;;;8.90;99.90;;;;;;953889;149;27358;-76
2022/11/06 00:10:31;;;;;;;9.77;6.70;;;8.80;99.90;;;;;;958411;147;27316;-77
2022/11/06 00:12:58;;;;;;;9.00;7.03;;;8.80;99.90;;;;;;964096;147;27331;-78
2022/11/06 00:15:24;;;;;;;8.20;6.60;;;8.80;99.90;;;;;;963598;146;27315;-78
2022/11/06 00:17:51;;;;;;;8.03;7.03;;;8.70;99.90;;;;;;962537;147;27337;-77
2022/11/06 00:20:18;;;;;;;7.77;6.93;;;8.70;99.90;;;;;;961666;147;27261;-77
2022/11/06 00:22:44;;;;;;;8.90;7.27;;;8.60;99.90;;;;;;963964;147;27416;-75
2022/11/06 00:25:11;;;;;;;8.80;7.60;;;8.60;99.90;;;;;;961925;145;27346;-76
2022/11/06 00:27:37;;;;;;;8.07;6.90;;;8.50;99.90;;;;;;963327;147;27279;-77
2022/11/06 00:30:04;;;;;;;8.93;7.33;;;8.50;99.90;;;;;;960221;147;27396;-79
2022/11/06 00:32:30;;;;;;;9.17;7.17;;;8.40;99.90;;;;;;961299;147;27367;-76
2022/11/06 00:34:57;;;;;;;8.70;6.90;;;8.40;99.90;;;;;;962422;147;27317;-77
2022/11/06 00:37:24;;;;;;;8.40;6.80;;;8.40;99.90;;;;;;963244;147;27391;-76
2022/11/06 00:39:50;;;;;;;9.30;6.80;;;8.30;99.90;;;;;;962857;147;27862;-80
2022/11/06 00:42:17;;;;;;;7.50;6.73;;;8.30;99.90;;;;;;961431;147;27934;-77
2022/11/06 00:44:43;;;;;;;10.97;8.70;;;8.30;99.90;;;;;;955826;146;27360;-76
2022/11/06 00:47:11;;;;;;;8.03;7.27;;;8.20;99.90;;;;;;952630;146;27318;-76
2022/11/06 00:49:37;;;;;;;8.00;6.27;;;8.20;99.90;;;;;;955895;146;27419;-76
2022/11/06 00:52:03;;;;;;;7.80;7.00;;;8.10;99.90;;;;;;971534;143;27255;-80
2022/11/06 00:54:30;;;;;;;8.13;7.13;;;8.10;99.90;;;;;;960247;145;27957;-79
2022/11/06 00:56:56;;;;;;;8.37;6.97;;;8.00;99.90;;;;;;954962;146;27353;-76
2022/11/06 00:59:23;;;;;;;8.33;7.30;;;8.00;99.90;;;;;;958968;146;27282;-77
2022/11/06 01:01:49;;;;;;;9.30;6.83;;;7.90;99.90;;;;;;958676;146;27333;-76
2022/11/06 01:04:16;;;;;;;7.80;6.87;;;7.90;99.90;;;;;;959666;148;27331;-79
2022/11/06 01:06:43;;;;;;;7.83;6.80;;;7.90;99.90;;;;;;958425;147;27357;-80
2022/11/06 01:09:09;;;;;;;7.80;6.80;;;7.80;99.90;;;;;;958408;148;27429;-77
2022/11/06 01:11:36;;;;;;;8.03;6.37;;;7.80;99.90;;;;;;957855;148;27298;-80
2022/11/06 01:14:02;;;;;;;9.03;6.63;;;7.70;99.90;;;;;;936711;149;27326;-78
2022/11/06 01:16:29;;;;;;;8.60;7.47;;;7.70;99.90;;;;;;954470;146;27302;-76
2022/11/06 01:18:56;;;;;;;8.07;6.97;;;7.60;99.90;;;;;;934561;150;27650;-78
2022/11/06 01:21:25;;;;;;;8.43;6.60;;;7.60;99.90;;;;;;943423;148;27349;-76
2022/11/06 01:23:51;;;;;;;8.90;6.10;;;7.60;99.90;;;;;;941663;148;27353;-76
2022/11/06 01:26:18;;;;;;;8.60;6.63;;;7.50;99.90;;;;;;954518;146;27326;-76
2022/11/06 01:28:45;;;;;;;8.03;6.37;;;7.50;99.90;;;;;;953954;146;27762;-79
2022/11/06 01:31:11;;;;;;;6.93;6.23;;;7.50;99.90;;;;;;955999;146;27474;-77
2022/11/06 01:33:38;;;;;;;7.60;6.43;;;7.50;99.90;;;;;;950819;147;27425;-77
2022/11/06 01:36:04;;;;;;;6.97;6.27;;;7.40;99.90;;;;;;951979;147;27398;-76
2022/11/06 01:38:31;;;;;;;6.67;5.97;;;7.40;99.90;;;;;;953055;147;27352;-76
2022/11/06 01:40:58;;;;;;;7.23;6.50;;;7.40;99.90;;;;;;955611;146;27621;-77
2022/11/06 01:43:24;;;;;;;8.23;6.17;;;7.30;99.90;;;;;;939455;148;27876;-82
2022/11/06 01:45:51;;;;;;;7.87;6.23;;;7.30;99.90;;;;;;943514;148;27426;-78
2022/11/06 01:48:17;;;;;;;8.37;6.30;;;7.30;99.90;;;;;;948025;147;27338;-78
2022/11/06 01:50:44;;;;;;;6.87;6.17;;;7.30;99.90;;;;;;947243;147;27338;-78
2022/11/06 01:53:10;;;;;;;8.03;5.77;;;7.20;99.90;;;;;;946013;147;27279;-78
2022/11/06 01:55:40;;;;;;;6.70;6.00;;;7.20;99.90;;;;;;948102;147;27429;-80
2022/11/06 01:58:06;;;;;;;7.20;6.50;;;7.20;99.90;;;;;;948489;147;27451;-79
2022/11/06 02:00:33;;;;;;;6.70;6.03;;;7.20;99.90;;;;;;946802;147;27855;-78
2022/11/06 02:02:59;;;;;;;7.00;6.13;;;7.20;99.90;;;;;;948072;147;27421;-79
2022/11/06 02:05:26;;;;;;;8.73;6.03;;;7.10;99.90;;;;;;947487;147;27965;-77
2022/11/06 02:07:53;;;;;;;6.90;6.20;;;7.10;99.90;;;;;;949297;147;27397;-77
2022/11/06 02:10:19;;;;;;;9.43;6.50;;;7.10;99.90;;;;;;949811;147;27353;-76
2022/11/06 02:12:46;;;;;;;8.20;5.70;;;7.10;99.90;;;;;;949241;147;27412;-76
2022/11/06 02:15:18;;;;;;;7.70;6.90;;;7.10;99.90;;;;;;943600;148;27422;-76
2022/11/06 02:18:12;;;;;;;8.43;6.00;;;7.00;99.90;;;;;;953328;145;27301;-76
2022/11/06 02:20:39;;;;;;;7.40;5.57;;;7.10;99.90;;;;;;948178;147;27431;-81
2022/11/06 02:23:11;;;;;;;9.60;6.50;;;7.00;99.90;;;;;;947684;147;27905;-82
2022/11/06 02:25:38;;;;;;;6.47;5.73;;;7.00;99.90;;;;;;938614;147;27333;-79
2022/11/06 02:28:10;;;;;;;6.27;5.67;;;7.00;99.90;;;;;;947032;147;27820;-78
2022/11/06 02:30:37;;;;;;;8.00;6.37;;;6.90;99.90;;;;;;941132;147;27371;-78
2022/11/06 02:33:03;;;;;;;7.60;5.37;;;6.90;99.90;;;;;;948515;147;27335;-82
2022/11/06 02:35:33;;;;;;;8.17;5.97;;;6.90;99.90;;;;;;947507;147;27361;-78
2022/11/06 02:37:59;;;;;;;6.87;6.17;;;6.90;99.90;;;;;;949936;147;27353;-78
2022/11/06 02:40:27;;;;;;;7.47;6.10;;;6.90;99.90;;;;;;946637;147;27270;-76
2022/11/06 02:42:53;;;;;;;6.97;5.87;;;6.80;99.90;;;;;;947447;147;27381;-76
2022/11/06 02:45:19;;;;;;;6.00;5.40;;;6.80;99.90;;;;;;948661;147;27321;-78
2022/11/06 02:47:46;;;;;;;6.77;5.83;;;6.80;99.90;;;;;;948510;147;27345;-79
2022/11/06 02:50:18;;;;;;;5.73;5.23;;;6.80;99.90;;;;;;947868;147;27349;-78
2022/11/06 02:52:45;;;;;;;6.07;5.33;;;6.80;99.90;;;;;;947292;147;27403;-79
2022/11/06 02:55:11;;;;;;;5.63;5.03;;;6.70;99.90;;;;;;948733;147;27329;-78
2022/11/06 02:57:38;;;;;;;6.10;5.23;;;6.70;99.90;;;;;;948167;147;27365;-79
2022/11/06 03:00:07;;;;;;;6.70;5.43;;;6.70;99.90;;;;;;948821;147;27482;-78
2022/11/06 03:02:34;;;;;;;6.83;5.40;;;6.70;99.90;;;;;;946635;147;27325;-79
2022/11/06 03:05:03;;;;;;;6.27;5.60;;;6.60;99.90;;;;;;946591;147;27403;-78
2022/11/06 03:07:41;;;;;;;7.30;5.70;;;6.60;99.90;;;;;;950135;147;27372;-80
2022/11/06 03:10:08;;;;;;;7.10;4.40;;;6.60;99.90;;;;;;947050;147;27440;-78
2022/11/06 03:12:40;;;;;;;5.00;4.60;;;6.60;99.90;;;;;;944873;147;27432;-78
2022/11/06 03:15:07;;;;;;;6.20;5.03;;;6.60;99.90;;;;;;937537;151;27760;-77
2022/11/06 03:17:45;;;;;;;6.30;5.10;;;6.50;99.90;;;;;;940277;150;27703;-79
2022/11/06 03:20:22;;;;;;;5.10;4.70;;;6.50;99.90;;;;;;939729;150;27348;-79
2022/11/06 03:22:50;;;;;;;6.43;5.20;;;6.50;99.90;;;;;;938924;151;27342;-79
2022/11/06 03:25:22;;;;;;;8.07;5.80;;;6.50;99.90;;;;;;936625;150;27882;-79
2022/11/06 03:27:57;;;;;;;5.70;5.10;;;6.50;99.90;;;;;;946707;150;27331;-79
2022/11/06 03:30:24;;;;;;;8.37;5.13;;;6.50;99.90;;;;;;946399;150;28244;-79
2022/11/06 03:32:53;;;;;;;7.33;5.50;;;6.50;99.90;;;;;;948027;149;27420;-79
2022/11/06 03:35:23;;;;;;;6.57;5.70;;;6.50;99.90;;;;;;945696;150;27297;-79
2022/11/06 03:37:58;;;;;;;7.90;5.77;;;6.50;99.90;;;;;;945311;149;27605;-79
2022/11/06 03:40:24;;;;;;;6.07;5.13;;;6.50;99.90;;;;;;948680;149;27331;-80
2022/11/06 03:42:51;;;;;;;6.43;4.87;;;6.50;99.90;;;;;;947177;150;27384;-80
2022/11/06 03:45:18;;;;;;;6.63;5.00;;;6.50;99.90;;;;;;945963;150;27438;-80
2022/11/06 03:47:44;;;;;;;6.73;5.27;;;6.50;99.90;;;;;;946380;149;27331;-79
2022/11/06 03:50:26;;;;;;;6.07;5.30;;;6.50;99.90;;;;;;947198;150;27411;-80
2022/11/06 03:52:53;;;;;;;5.90;5.20;;;6.50;99.90;;;;;;946551;149;27783;-80
2022/11/06 03:55:21;;;;;;;6.07;5.07;;;6.50;99.90;;;;;;946540;149;27323;-80
2022/11/06 03:57:53;;;;;;;6.60;5.20;;;6.50;99.90;;;;;;947758;150;27417;-80
2022/11/06 04:00:20;;;;;;;5.83;5.23;;;6.50;99.90;;;;;;946222;149;27438;-80
2022/11/06 04:03:03;;;;;;;5.50;5.00;;;6.50;99.90;;;;;;944799;150;27336;-80
2022/11/06 04:05:22;;;;;;;5.67;5.17;;;6.50;99.90;;;;;;945653;149;27398;-80
2022/11/06 04:16:06;;;;;;;7.27;5.03;;;6.40;99.90;;;;;;938670;151;27453;-78
2022/11/06 04:18:32;;;;;;;5.60;5.07;;;6.40;99.90;;;;;;938855;151;27331;-79
2022/11/06 04:26:47;;;;;;;5.97;5.37;;;6.40;99.90;;;;;;941312;151;27731;-79
2022/11/06 04:29:19;;;;;;;6.83;5.27;;;6.30;99.90;;;;;;939705;151;27786;-78
2022/11/06 04:32:03;;;;;;;9.37;5.13;;;6.30;99.90;;;;;;918384;151;28034;-78
2022/11/06 04:34:39;;;;;;;6.03;5.30;;;6.30;99.90;;;;;;935990;151;27448;-78
2022/11/06 04:37:13;;;;;;;7.53;5.50;;;6.30;99.90;;;;;;937153;151;27308;-79
2022/11/06 04:39:41;;;;;;;5.83;5.17;;;6.20;99.90;;;;;;934295;150;27327;-79
2022/11/06 04:42:22;;;;;;;8.47;5.50;;;6.20;99.90;;;;;;934037;152;27378;-80
2022/11/06 04:44:49;;;;;;;6.10;5.07;;;6.20;99.90;;;;;;943155;148;27309;-80
2022/11/06 04:47:18;;;;;;;6.83;5.37;;;6.20;99.90;;;;;;935751;149;27405;-80
2022/11/06 04:49:45;;;;;;;7.13;5.40;;;6.20;99.90;;;;;;938215;149;27338;-80
2022/11/06 04:52:17;;;;;;;7.00;5.57;;;6.20;99.90;;;;;;955326;149;27331;-79
2022/11/06 04:54:44;;;;;;;6.27;5.40;;;6.20;99.90;;;;;;954117;149;27877;-80
2022/11/06 04:57:10;;;;;;;5.83;5.30;;;6.20;99.90;;;;;;939315;148;27301;-80
2022/11/06 04:59:37;;;;;;;6.40;5.27;;;6.30;99.90;;;;;;938834;150;27370;-80
2022/11/06 05:02:03;;;;;;;5.80;5.30;;;6.20;99.90;;;;;;938384;149;27317;-79
2022/11/06 05:04:30;;;;;;;5.97;5.40;;;6.30;99.90;;;;;;957473;148;27421;-79
2022/11/06 05:06:57;;;;;;;7.03;5.40;;;6.30;99.90;;;;;;951936;149;27356;-80
2022/11/06 05:09:24;;;;;;;7.10;6.00;;;6.30;99.90;;;;;;952685;149;27398;-79
2022/11/06 05:11:50;;;;;;;5.87;5.13;;;6.30;99.90;;;;;;954461;149;27413;-79
2022/11/06 05:14:16;;;;;;;6.10;5.50;;;6.20;99.90;;;;;;957756;148;27441;-79
2022/11/06 05:16:43;;;;;;;6.03;4.73;;;6.20;99.90;;;;;;947691;148;27422;-79
2022/11/06 05:19:10;;;;;;;6.77;5.10;;;6.20;99.90;;;;;;945937;150;27419;-79
2022/11/06 05:24:21;;;;;;;7.13;5.57;;;6.20;99.90;;;;;;945906;150;27454;-80
2022/11/06 05:26:47;;;;;;;6.27;5.67;;;6.20;99.90;;;;;;946868;150;27316;-80
2022/11/06 05:29:14;;;;;;;6.63;5.60;;;6.20;99.90;;;;;;957469;148;27693;-80
2022/11/06 05:31:41;;;;;;;6.30;5.70;;;6.20;99.90;;;;;;940468;151;27350;-80
2022/11/06 05:34:07;;;;;;;8.07;5.33;;;6.20;99.90;;;;;;948409;149;27422;-80
2022/11/06 05:36:34;;;;;;;6.73;5.60;;;6.10;99.90;;;;;;950546;149;27320;-79
2022/11/06 05:39:00;;;;;;;5.47;4.63;;;6.10;99.90;;;;;;958617;148;27292;-79
2022/11/06 05:41:27;;;;;;;8.77;5.57;;;6.20;99.90;;;;;;957820;148;27425;-79
2022/11/06 05:43:54;;;;;;;8.30;5.10;;;6.10;99.90;;;;;;957632;148;27450;-79
2022/11/06 05:46:20;;;;;;;8.13;5.80;;;6.10;99.90;;;;;;957636;148;27343;-79
2022/11/06 05:48:47;;;;;;;5.37;4.83;;;6.10;99.90;;;;;;957553;148;27277;-79
2022/11/06 05:51:13;;;;;;;6.07;5.33;;;6.10;99.90;;;;;;956707;148;27300;-79
2022/11/06 05:53:40;;;;;;;6.27;5.47;;;6.10;99.90;;;;;;941809;148;27332;-79
2022/11/06 05:56:07;;;;;;;5.67;4.70;;;6.10;99.90;;;;;;956875;148;27701;-80
2022/11/06 05:58:33;;;;;;;6.33;5.50;;;6.10;99.90;;;;;;957062;148;27444;-80
2022/11/06 06:01:00;;;;;;;6.60;5.57;;;6.10;99.90;;;;;;958241;148;27898;-80
2022/11/06 06:03:26;;;;;;;6.50;5.60;;;6.00;99.90;;;;;;957652;146;27365;-80
2022/11/06 06:05:53;;;;;;;6.13;5.53;;;6.00;99.90;;;;;;947523;151;27416;-80
2022/11/06 06:08:19;;;;;;;7.10;6.43;;;6.00;99.90;;;;;;941680;148;27385;-79
2022/11/06 06:10:46;;;;;;;8.00;7.20;;;6.00;99.90;;;;;;941167;151;27324;-79
2022/11/06 06:13:13;;;;;;;7.63;6.40;;;6.00;99.90;;;;;;941856;151;27361;-79
2022/11/06 06:15:39;;;;;;;7.17;6.40;;;6.00;99.90;;;;;;945432;145;27659;-80
2022/11/06 06:18:06;;;;;;;9.40;6.13;;;6.00;99.90;;;;;;939514;151;27270;-80
2022/11/06 06:20:32;;;;;;;7.93;5.77;;;6.00;99.90;;;;;;934742;150;27368;-79
2022/11/06 06:22:59;;;;;;;6.63;5.80;;;6.00;99.90;;;;;;939410;149;27459;-79
2022/11/06 06:25:26;;;;;;;6.70;5.77;;;6.00;99.90;;;;;;949864;149;27439;-79
2022/11/06 06:27:52;;;;;;;6.13;5.33;;;6.00;99.90;;;;;;937182;149;27316;-79
2022/11/06 06:30:19;;;;;;;7.03;6.00;;;6.00;99.90;;;;;;937561;150;27990;-79
2022/11/06 06:32:45;;;;;;;6.97;5.90;;;6.00;99.90;;;;;;938922;151;27317;-79
2022/11/06 06:35:12;;;;;;;7.30;6.53;;;6.10;99.90;;;;;;940748;151;27345;-79
2022/11/06 06:37:38;;;;;;;7.90;6.50;;;6.10;99.90;;;;;;941607;151;27347;-79
2022/11/06 06:40:05;;;;;;;9.73;6.43;;;6.10;99.90;;;;;;938396;151;27361;-79
2022/11/06 06:42:32;;;;;;;6.90;6.10;;;6.10;99.90;;;;;;934504;151;27307;-79
2022/11/06 06:44:58;;;;;;;11.67;7.07;;;6.20;99.90;;;;;;937519;152;27292;-79
2022/11/06 06:47:25;;;;;;;10.50;6.90;;;6.30;99.90;;;;;;937106;152;27769;-79
2022/11/06 06:49:52;;;;;;;7.67;6.83;;;6.50;99.90;;;;;;936805;152;27404;-79
2022/11/06 06:52:18;;;;;;;10.17;7.43;;;6.70;99.90;;;;;;939715;151;27459;-79
2022/11/06 06:54:45;;;;;;;8.13;6.37;;;6.90;99.90;;;;;;939723;151;28537;-80
2022/11/06 06:57:11;;;;;;;8.60;7.27;;;7.20;99.90;;;;;;940704;151;27426;-80
2022/11/06 06:59:38;;;;;;;7.43;6.60;;;7.50;99.90;;;;;;939226;151;27792;-80
2022/11/06 07:02:04;;;;;;;8.63;7.07;;;7.90;99.90;;;;;;939455;151;27341;-80
2022/11/06 07:04:31;;;;;;;7.93;7.10;;;8.20;99.90;;;;;;940990;151;27479;-80
2022/11/06 07:06:58;;;;;;;8.90;7.33;;;8.50;99.90;;;;;;940428;151;27340;-80
2022/11/06 07:09:24;;;;;;;9.23;6.63;;;8.90;99.90;;;;;;939029;151;27400;-80
2022/11/06 07:11:51;;;;;;;8.30;7.17;;;9.30;99.90;;;;;;938068;151;27419;-80
2022/11/06 07:14:17;;;;;;;6.90;6.20;;;9.60;99.90;;;;;;953894;146;27418;-80
2022/11/06 07:16:44;;;;;;;7.00;6.40;;;10.00;99.90;;;;;;953519;145;27453;-79
2022/11/06 07:19:11;;;;;;;7.40;6.50;;;10.30;99.90;;;;;;954097;145;27335;-79
2022/11/06 07:21:37;;;;;;;8.07;6.13;;;10.70;99.90;;;;;;954232;145;27391;-79
2022/11/06 07:24:04;;;;;;;6.57;5.97;;;11.10;99.90;;;;;;953081;147;27331;-79
2022/11/06 07:26:30;;;;;;;7.10;5.50;;;11.50;99.90;;;;;;950255;147;27337;-79
2022/11/06 07:28:57;;;;;;;5.87;5.37;;;12.00;99.90;;;;;;951612;147;27348;-79
2022/11/06 07:31:23;;;;;;;7.40;5.60;;;12.40;99.90;;;;;;951693;147;27448;-79
2022/11/06 07:33:50;;;;;;;6.40;5.80;;;12.80;99.90;;;;;;949702;147;27330;-79
2022/11/06 07:36:17;;;;;;;5.57;5.03;;;13.20;99.90;;;;;;952119;147;27385;-79
2022/11/06 07:38:43;;;;;;;5.90;5.30;;;13.60;99.90;;;;;;950566;147;27403;-79
2022/11/06 07:41:10;;;;;;;5.60;5.10;;;14.00;99.90;;;;;;949955;147;27292;-79
2022/11/06 07:43:36;;;;;;;5.15;4.65;;;14.40;99.90;;;;;;951933;147;27335;-79
2022/11/06 07:46:03;;;;;;;5.80;5.28;;;14.70;99.90;;;;;;952862;147;27945;-79
2022/11/06 07:48:30;;;;;;;4.78;4.37;;;15.10;99.50;;;;;;951199;147;27375;-79
2022/11/06 07:50:56;;;;;;;5.42;4.67;;;15.50;98.50;;;;;;955687;147;27366;-79
2022/11/06 07:53:23;;;;;;;5.22;4.83;;;15.80;97.50;;;;;;952497;147;27341;-79
2022/11/06 07:55:52;;;;;;;5.83;4.90;;;16.10;96.40;;;;;;952035;147;27329;-79
2022/11/06 07:58:19;;;;;;;5.08;4.67;;;16.40;95.20;;;;;;951027;147;27454;-79
2022/11/06 08:00:51;;;;;;;4.62;4.22;;;16.70;94.00;;;;;;949948;147;27289;-79
2022/11/06 08:03:18;;;;;;;4.95;4.45;;;17.10;93.50;;;;;;951900;147;27286;-79
2022/11/06 08:05:44;;;;;;;4.55;4.15;;;17.40;93.00;;;;;;952981;147;27370;-79
2022/11/06 08:08:11;;;;;;;4.70;4.17;;;17.70;92.30;;;;;;952789;147;27403;-79
2022/11/06 08:10:42;;;;;;;4.95;4.40;;;18.00;91.60;;;;;;950256;147;27444;-79
2022/11/06 08:13:04;;;;;;;3.80;3.52;;;18.30;90.80;;;;;;948380;147;27365;-79
2022/11/06 08:15:31;;;;;;;4.00;3.60;;;18.60;90.10;;;;;;949520;147;27342;-79
2022/11/06 08:17:57;;;;;;;4.92;3.75;;;18.90;88.60;;;;;;950382;147;27371;-79
2022/11/06 08:20:24;;;;;;;4.30;4.00;;;19.10;86.60;;;;;;949437;147;27352;-79
2022/11/06 08:22:50;;;;;;;4.72;3.92;;;19.30;85.20;;;;;;951436;147;27364;-79
2022/11/06 08:25:17;;;;;;;4.53;4.17;;;19.30;82.50;;;;;;951180;147;27648;-79
2022/11/06 08:27:44;;;;;;;4.90;3.65;;;19.50;81.00;;;;;;949275;147;27310;-79
2022/11/06 08:30:10;;;;;;;3.85;3.50;;;19.60;80.50;;;;;;950739;147;27301;-79
2022/11/06 08:32:37;;;;;;;4.17;3.87;;;19.60;79.90;;;;;;951157;147;27347;-79
2022/11/06 08:35:04;;;;;;;4.10;3.80;;;19.50;78.60;;;;;;951260;147;27450;-79
2022/11/06 08:37:30;;;;;;;4.70;4.30;;;19.40;76.90;;;;;;949871;147;27437;-79
2022/11/06 08:39:57;;;;;;;4.17;3.87;;;19.10;75.00;;;;;;951647;147;27371;-78
2022/11/06 08:42:23;;;;;;;4.47;4.08;;;18.70;73.50;;;;;;952194;147;27353;-78
2022/11/06 08:44:50;;;;;;;5.00;3.67;;;18.30;72.90;;;;;;950823;147;27440;-78
2022/11/06 08:47:17;;;;;;;5.22;4.05;;;17.80;72.40;;;;;;951453;147;27338;-78
2022/11/06 08:49:43;;;;;;;4.58;4.15;;;17.20;72.20;;;;;;951885;147;27372;-78
2022/11/06 08:52:10;;;;;;;4.87;4.37;;;16.70;72.70;;;;;;951581;147;27328;-79
2022/11/06 08:54:37;;;;;;;4.03;3.72;;;16.30;73.50;;;;;;951972;147;27482;-78
2022/11/06 08:57:03;;;;;;;4.17;3.87;;;15.80;74.40;;;;;;950851;147;27258;-78
2022/11/06 08:59:30;;;;;;;4.93;3.57;;;15.40;75.00;;;;;;952502;147;27433;-78
2022/11/06 09:01:56;;;;;;;4.03;3.65;;;15.10;74.90;;;;;;950721;147;27364;-78
2022/11/06 09:04:23;;;;;;;4.07;3.77;;;14.80;77.40;;;;;;952139;147;28310;-78
2022/11/06 09:06:49;;;;;;;6.33;4.65;;;14.50;77.80;;;;;;947325;147;27380;-78
2022/11/06 09:09:16;;;;;;;4.10;3.63;;;14.40;78.70;;;;;;951050;147;27454;-78
2022/11/06 09:11:42;;;;;;;4.50;3.80;;;14.20;79.10;;;;;;951271;147;27323;-78
2022/11/06 09:14:09;;;;;;;4.37;3.97;;;14.00;79.20;;;;;;944576;148;27417;-78
2022/11/06 09:16:36;;;;;;;4.53;4.13;;;13.80;79.50;;;;;;955529;146;27361;-78
2022/11/06 09:19:02;;;;;;;4.53;4.13;;;13.60;79.90;;;;;;953054;145;27265;-78
2022/11/06 09:21:29;;;;;;;3.90;3.50;;;13.50;80.30;;;;;;937720;148;27490;-78
2022/11/06 09:23:55;;;;;;;3.97;3.57;;;13.30;81.30;;;;;;938791;149;27352;-78
2022/11/06 09:26:22;;;;;;;4.20;3.80;;;13.20;82.90;;;;;;950100;148;27437;-78
2022/11/06 09:28:49;;;;;;;4.67;4.27;;;13.10;84.00;;;;;;952873;145;27419;-78
2022/11/06 09:31:15;;;;;;;4.27;3.80;;;13.10;84.30;;;;;;947407;147;27344;-78
2022/11/06 09:33:42;;;;;;;4.37;3.97;;;13.10;84.90;;;;;;948291;147;27313;-78
2022/11/06 09:36:08;;;;;;;4.37;4.07;;;13.00;84.20;;;;;;946713;147;27719;-78
2022/11/06 09:38:35;;;;;;;5.40;4.40;;;13.00;84.30;;;;;;944968;147;27299;-79
2022/11/06 09:41:02;;;;;;;5.80;3.50;;;12.90;84.30;;;;;;947253;147;27325;-79
2022/11/06 09:43:46;;;;;;;4.00;3.70;;;12.80;84.20;;;;;;947661;147;27357;-79
2022/11/06 09:46:24;;;;;;;4.57;4.07;;;12.70;84.60;;;;;;948757;147;27361;-79
2022/11/06 09:48:54;;;;;;;4.30;3.90;;;12.60;84.90;;;;;;943951;147;27321;-80
2022/11/06 09:51:33;;;;;;;4.33;4.00;;;12.60;85.50;;;;;;948402;147;27364;-79
2022/11/06 09:54:07;;;;;;;3.80;3.50;;;12.50;86.30;;;;;;947140;147;27871;-79
2022/11/06 09:56:34;;;;;;;3.93;3.63;;;12.50;87.30;;;;;;946161;147;27339;-80
2022/11/06 09:59:01;;;;;;;4.43;4.03;;;12.50;87.90;;;;;;947060;147;27313;-79
2022/11/06 10:01:27;;;;;;;4.20;3.80;;;12.50;87.90;;;;;;935337;148;27435;-79
2022/11/06 10:03:54;;;;;;;4.40;3.83;;;12.60;88.00;;;;;;941409;148;27345;-79
2022/11/06 10:06:20;;;;;;;6.03;4.20;;;12.60;88.20;;;;;;952861;146;28294;-79
2022/11/06 10:08:47;;;;;;;4.03;3.70;;;12.60;88.20;;;;;;953378;146;27458;-79
2022/11/06 10:11:14;;;;;;;4.23;3.93;;;12.60;87.90;;;;;;951341;146;27454;-80
2022/11/06 10:13:58;;;;;;;4.87;3.93;;;12.60;87.90;;;;;;954075;146;27333;-79
2022/11/06 10:16:53;;;;;;;4.50;4.10;;;12.70;88.10;;;;;;952820;146;27421;-79
2022/11/06 10:19:28;;;;;;;4.90;4.50;;;12.70;88.30;;;;;;942659;148;27315;-79
2022/11/06 10:22:07;;;;;;;4.63;4.20;;;12.70;88.40;;;;;;949945;147;27340;-79
2022/11/06 10:24:36;;;;;;;4.33;4.03;;;12.70;88.50;;;;;;950018;147;27415;-79
2022/11/06 10:27:03;;;;;;;4.80;3.87;;;12.70;89.00;;;;;;953266;147;27323;-79
2022/11/06 10:29:48;;;;;;;4.50;3.97;;;12.70;89.60;;;;;;950058;147;27407;-80
2022/11/06 10:32:39;;;;;;;3.50;3.20;;;12.80;90.00;;;;;;949828;147;27368;-80
2022/11/06 10:35:06;;;;;;;4.03;3.63;;;12.80;90.30;;;;;;950071;147;27345;-79
2022/11/06 10:37:32;;;;;;;5.47;3.93;;;12.80;90.30;;;;;;951852;147;27360;-79
2022/11/06 10:39:59;;;;;;;4.07;3.67;;;12.90;90.30;;;;;;949927;147;27373;-79
2022/11/06 10:42:31;;;;;;;5.03;3.57;;;12.90;90.20;;;;;;950417;147;27329;-79
2022/11/06 10:45:04;;;;;;;4.37;3.97;;;13.00;90.10;;;;;;952815;147;27315;-79
2022/11/06 10:47:33;;;;;;;4.33;3.93;;;13.10;90.00;;;;;;949161;147;27353;-80
2022/11/06 10:50:00;;;;;;;4.57;4.17;;;13.10;89.90;;;;;;951269;147;27348;-81
2022/11/06 10:52:35;;;;;;;3.80;3.50;;;13.10;89.80;;;;;;950844;147;27319;-80
2022/11/06 10:55:13;;;;;;;4.47;4.03;;;13.20;89.70;;;;;;949156;147;27355;-80
2022/11/06 10:57:40;;;;;;;5.40;4.30;;;13.20;89.80;;;;;;949184;147;27829;-81
2022/11/06 11:00:07;;;;;;;4.70;4.30;;;13.20;90.00;;;;;;951243;147;27344;-81
2022/11/06 11:02:33;;;;;;;4.20;3.80;;;13.30;89.80;;;;;;951693;147;27869;-80
2022/11/06 11:05:00;;;;;;;4.70;3.83;;;13.30;89.60;;;;;;951786;147;27743;-80
2022/11/06 11:07:29;;;;;;;3.83;3.50;;;13.40;89.60;;;;;;950684;147;27773;-81
2022/11/06 11:09:56;;;;;;;3.90;3.45;;;13.40;89.30;;;;;;949984;147;27482;-81
2022/11/06 11:12:22;;;;;;;3.80;3.37;;;13.40;89.20;;;;;;950857;147;27357;-80
2022/11/06 11:15:13;;;;;;;3.67;3.30;;;13.50;89.10;;;;;;950843;147;28173;-80
2022/11/06 11:17:40;;;;;;;3.50;3.20;;;13.50;88.90;;;;;;951033;147;27392;-81
2022/11/06 11:20:28;;;;;;;3.50;3.20;;;13.50;88.90;;;;;;950562;147;27516;-80
2022/11/06 11:22:55;;;;;;;3.20;2.90;;;13.50;88.90;;;;;;953029;147;27437;-80
2022/11/06 11:25:24;;;;;;;3.98;3.67;;;13.60;89.10;;;;;;936788;147;27363;-80
2022/11/06 11:27:50;;;;;;;3.98;2.65;;;13.60;88.90;;;;;;952778;147;27437;-80
2022/11/06 11:30:20;;;;;;;2.97;2.67;;;13.70;88.90;;;;;;950461;147;27353;-81
2022/11/06 11:32:46;;;;;;;3.30;3.10;;;13.70;88.80;;;;;;952079;147;27466;-80
2022/11/06 11:35:13;;;;;;;3.63;3.13;;;13.80;88.70;;;;;;952032;147;27391;-81
2022/11/06 11:37:39;;;;;;;3.87;3.25;;;13.80;88.60;;;;;;950181;147;27434;-81
2022/11/06 11:40:34;;;;;;;3.93;3.30;;;13.90;88.50;;;;;;950742;147;27344;-80
2022/11/06 11:43:00;;;;;;;3.40;3.10;;;13.90;88.20;;;;;;949831;147;27380;-79
2022/11/06 11:45:26;;;;;;;3.37;2.90;;;14.00;88.30;;;;;;946462;147;27377;-79
2022/11/06 11:47:53;;;;;;;3.33;3.02;;;14.00;88.20;;;;;;951531;147;27396;-79
2022/11/06 11:50:28;;;;;;;2.73;2.53;;;14.10;87.80;;;;;;946937;147;27407;-79
2022/11/06 11:53:06;;;;;;;2.47;2.27;;;14.10;87.70;;;;;;952405;147;27340;-80
2022/11/06 11:55:33;;;;;;;2.90;2.70;;;14.10;87.40;;;;;;943598;147;27347;-80
2022/11/06 11:58:00;;;;;;;5.30;2.90;;;14.20;86.80;;;;;;950014;147;27373;-80
2022/11/06 12:00:26;;;;;;;2.60;2.40;;;14.20;87.20;;;;;;951571;147;27305;-80
2022/11/06 12:02:59;;;;;;;2.45;2.25;;;14.20;86.30;;;;;;951222;147;27348;-80
2022/11/06 12:05:35;;;;;;;3.22;2.45;;;14.20;86.40;;;;;;951732;147;27344;-80
2022/11/06 12:08:01;;;;;;;2.30;2.00;;;14.20;86.20;;;;;;949535;148;27469;-80
2022/11/06 12:10:28;;;;;;;3.60;2.63;;;14.20;86.30;;;;;;952665;147;27406;-80
2022/11/06 12:12:54;;;;;;;3.07;1.90;;;14.20;86.60;;;;;;951316;147;27309;-80
2022/11/06 12:15:24;;;;;;;1.82;1.72;;;14.30;86.20;;;;;;951641;147;27282;-80
2022/11/06 12:17:56;;;;;;;2.90;1.95;;;14.30;85.30;;;;;;951556;147;27456;-79
2022/11/06 12:20:28;;;;;;;3.47;1.95;;;14.30;85.20;;;;;;951343;147;27382;-80
2022/11/06 12:22:55;;;;;;;2.50;2.30;;;14.30;85.00;;;;;;949154;147;27396;-79
2022/11/06 12:25:30;;;;;;;3.17;2.60;;;14.40;85.50;;;;;;950288;147;27302;-81
2022/11/06 12:27:57;;;;;;;5.83;2.50;;;14.40;84.70;;;;;;951791;147;27439;-81
2022/11/06 12:30:23;;;;;;;2.43;2.17;;;14.50;84.50;;;;;;951312;147;27373;-79
2022/11/06 12:32:59;;;;;;;1.90;1.80;;;14.50;83.90;;;;;;951879;147;27429;-80
2022/11/06 12:35:43;;;;;;;2.30;2.07;;;14.50;83.50;;;;;;952399;147;27440;-80
2022/11/06 12:38:31;;;;;;;2.87;2.42;;;14.50;83.20;;;;;;949709;147;27355;-80
2022/11/06 12:40:58;;;;;;;2.50;2.30;;;14.50;82.80;;;;;;948849;147;27328;-79
2022/11/06 12:43:33;;;;;;;2.08;1.98;;;14.50;82.70;;;;;;951561;147;27435;-78
2022/11/06 12:46:03;;;;;;;1.72;1.62;;;14.40;82.50;;;;;;948872;147;27417;-79
2022/11/06 12:48:35;;;;;;;2.05;1.90;;;14.40;82.50;;;;;;948853;147;27393;-79
2022/11/06 12:51:02;;;;;;;2.40;2.20;;;14.40;82.70;;;;;;929935;148;27345;-79
2022/11/06 12:53:40;;;;;;;2.60;2.40;;;14.40;83.20;;;;;;951351;147;27360;-79
2022/11/06 12:56:12;;;;;;;2.52;2.33;;;14.40;83.10;;;;;;950636;147;27437;-80
2022/11/06 12:58:42;;;;;;;2.87;2.47;;;14.40;83.50;;;;;;950896;147;27323;-79
2022/11/06 13:01:26;;;;;;;2.40;2.20;;;14.50;83.50;;;;;;948747;147;27447;-78
2022/11/06 13:04:01;;;;;;;2.50;2.30;;;14.50;83.60;;;;;;947982;147;27340;-79
2022/11/06 13:07:02;;;;;;;3.83;2.02;;;14.60;83.70;;;;;;950692;147;27278;-79
2022/11/06 13:09:43;;;;;;;3.60;2.33;;;14.60;83.50;;;;;;948933;147;27371;-79
2022/11/06 13:12:32;;;;;;;2.42;2.22;;;14.70;83.60;;;;;;949971;147;27257;-79
2022/11/06 13:15:22;;;;;;;2.30;2.10;;;14.80;83.50;;;;;;950548;147;27309;-79
2022/11/06 13:17:49;;;;;;;2.42;2.22;;;14.80;83.60;;;;;;951626;147;27729;-80
2022/11/06 13:20:19;;;;;;;2.30;2.17;;;14.90;82.80;;;;;;949384;147;27372;-80